Time;durP1;ratioP1;P1;durP2;ratioP2;P2;SDS_P1;SDS_P2;PMS_P1;PMS_P2;Temp;Humidity;BMP_temperature;BMP_pressure;BME280_temperature;BME280_humidity;BME280_pressure;Samples;Min_cycle;Max_cycle;Signal;HPM_P1;HPM_P2
2022/08/22 00:01:06;;;;;;;1.77;1.00;;;;;;;19.65;50.88;101377.00;4954891;28;96720;-49
2022/08/22 00:03:57;;;;;;;2.30;1.33;;;;;;;19.66;50.59;101377.78;4947064;28;98800;-49
2022/08/22 00:06:40;;;;;;;1.40;1.30;;;;;;;19.65;50.81;101384.63;4954955;28;96784;-48
2022/08/22 00:09:30;;;;;;;1.50;1.40;;;;;;;19.62;51.07;101383.66;4953177;28;97146;-49
2022/08/22 00:12:28;;;;;;;3.90;1.40;;;;;;;19.59;51.21;101381.19;4956350;28;100463;-49
2022/08/22 00:14:56;;;;;;;1.23;1.03;;;;;;;19.57;50.16;101375.41;4956601;28;102559;-49
2022/08/22 00:17:38;;;;;;;1.83;1.10;;;;;;;19.55;51.24;101380.78;4955990;28;96930;-49
2022/08/22 00:20:41;;;;;;;2.73;1.33;;;;;;;19.52;51.46;101376.25;4954229;28;96847;-48
2022/08/22 00:23:10;;;;;;;1.57;1.43;;;;;;;19.47;50.46;101379.91;4953645;28;101918;-49
2022/08/22 00:26:02;;;;;;;1.33;1.17;;;;;;;19.44;51.62;101388.06;4953607;28;97241;-48
2022/08/22 00:28:37;;;;;;;1.90;1.40;;;;;;;19.44;51.29;101376.13;4954681;28;97156;-48
2022/08/22 00:31:17;;;;;;;1.57;1.30;;;;;;;19.43;51.10;101378.22;4955362;28;97079;-49
2022/08/22 00:34:06;;;;;;;2.10;1.13;;;;;;;19.40;51.54;101370.13;4955698;28;100507;-48
2022/08/22 00:36:53;;;;;;;1.37;1.07;;;;;;;19.36;51.68;101375.28;4954059;28;96720;-48
2022/08/22 00:39:29;;;;;;;1.20;1.10;;;;;;;19.33;51.36;101381.94;4953154;28;97216;-50
2022/08/22 00:42:28;;;;;;;1.33;1.23;;;;;;;19.27;52.09;101378.47;4955002;28;96750;-48
2022/08/22 00:45:38;;;;;;;2.30;1.40;;;;;;;19.24;52.06;101379.56;4952798;28;100833;-51
2022/08/22 00:48:28;;;;;;;2.13;0.93;;;;;;;19.21;51.64;101373.00;4953271;28;101655;-48
2022/08/22 00:51:39;;;;;;;1.10;1.10;;;;;;;19.17;52.10;101374.59;4952025;28;97324;-55
2022/08/22 00:54:43;;;;;;;1.50;1.40;;;;;;;19.09;52.34;101376.53;4951545;28;97563;-49
2022/08/22 00:57:27;;;;;;;1.30;1.20;;;;;;;19.04;51.96;101382.97;4952194;28;101856;-49
2022/08/22 01:00:03;;;;;;;1.77;1.10;;;;;;;19.03;51.85;101382.19;4955708;28;97088;-49
2022/08/22 01:03:09;;;;;;;2.40;1.43;;;;;;;18.97;52.25;101372.44;4961611;28;96971;-49
2022/08/22 01:05:44;;;;;;;2.07;1.37;;;;;;;18.95;51.68;101386.16;4953658;28;97093;-49
2022/08/22 01:08:35;;;;;;;1.23;1.13;;;;;;;18.91;52.25;101378.13;4952824;28;100649;-46
2022/08/22 01:11:25;;;;;;;1.23;1.13;;;;;;;18.90;52.14;101387.00;4954980;28;100419;-48
2022/08/22 01:14:21;;;;;;;1.93;1.33;;;;;;;18.88;52.31;101381.19;4957416;28;97141;-48
2022/08/22 01:16:53;;;;;;;2.10;1.10;;;;;;;18.88;51.98;101386.78;4950076;28;96997;-48
2022/08/22 01:19:43;;;;;;;2.00;1.20;;;;;;;18.85;52.11;101388.59;4954313;28;98852;-55
2022/08/22 01:22:17;;;;;;;1.40;1.30;;;;;;;18.82;51.72;101383.34;4952693;28;97229;-47
2022/08/22 01:25:20;;;;;;;1.80;1.23;;;;;;;18.78;52.32;101389.22;4951590;28;96890;-48
2022/08/22 01:28:01;;;;;;;2.30;1.10;;;;;;;18.75;52.33;101395.84;4959979;28;97359;-48
2022/08/22 01:30:48;;;;;;;1.97;1.20;;;;;;;18.75;52.61;101393.06;4952554;28;101472;-48
2022/08/22 01:33:23;;;;;;;2.90;1.10;;;;;;;18.74;52.08;101385.97;4951945;28;101420;-48
2022/08/22 01:36:00;;;;;;;2.67;1.40;;;;;;;18.71;52.73;101389.84;4954785;28;97020;-48
2022/08/22 01:38:46;;;;;;;2.17;1.37;;;;;;;18.66;52.73;101382.31;4954043;28;97124;-48
2022/08/22 01:41:25;;;;;;;3.10;1.50;;;;;;;18.62;51.99;101382.63;4956257;28;101946;-47
2022/08/22 01:44:09;;;;;;;1.63;1.23;;;;;;;18.58;52.10;101373.84;4954776;28;97087;-48
2022/08/22 01:46:54;;;;;;;4.77;1.77;;;;;;;18.57;52.88;101380.69;4951227;28;96780;-48
2022/08/22 01:49:31;;;;;;;1.50;1.33;;;;;;;18.55;52.54;101382.50;4951862;28;96806;-48
2022/08/22 01:51:57;;;;;;;1.23;1.10;;;;;;;18.52;52.19;101386.34;4956910;28;97434;-48
2022/08/22 01:54:52;;;;;;;1.40;1.23;;;;;;;18.49;53.02;101385.38;4960767;28;98315;-47
2022/08/22 01:57:19;;;;;;;1.60;1.40;;;;;;;18.45;52.03;101390.50;4948733;28;97123;-48
2022/08/22 01:59:51;;;;;;;1.90;1.40;;;;;;;18.43;52.28;101384.69;4955317;28;96975;-47
2022/08/22 02:02:30;;;;;;;3.00;1.07;;;;;;;18.38;51.99;101376.38;4961252;28;97439;-47
2022/08/22 02:05:15;;;;;;;2.10;1.30;;;;;;;18.35;52.85;101375.41;4956937;28;101532;-48
2022/08/22 02:08:02;;;;;;;3.13;1.47;;;;;;;18.30;52.90;101378.28;4957185;28;96862;-48
2022/08/22 02:10:56;;;;;;;1.50;1.40;;;;;;;18.26;53.05;101366.69;4960360;28;96805;-47
2022/08/22 02:13:46;;;;;;;1.27;1.27;;;;;;;18.25;52.72;101376.34;4953746;28;102219;-47
2022/08/22 02:16:25;;;;;;;3.27;1.57;;;;;;;18.21;52.84;101361.97;4957395;28;100367;-48
2022/08/22 02:19:13;;;;;;;1.30;1.10;;;;;;;18.14;53.23;101371.69;4957102;28;96832;-49
2022/08/22 02:21:44;;;;;;;2.00;1.53;;;;;;;18.10;52.35;101370.47;4950574;28;97164;-48
2022/08/22 02:24:28;;;;;;;1.60;1.27;;;;;;;18.05;52.82;101360.16;4957491;28;101680;-49
2022/08/22 02:27:38;;;;;;;2.00;1.27;;;;;;;18.01;53.36;101374.38;4958100;28;101480;-49
2022/08/22 02:30:06;;;;;;;1.77;1.33;;;;;;;18.00;52.39;101363.78;4948523;28;97943;-48
2022/08/22 02:32:44;;;;;;;1.30;1.20;;;;;;;17.98;52.50;101370.63;4958982;28;96887;-48
2022/08/22 02:35:21;;;;;;;2.97;1.40;;;;;;;17.95;53.08;101370.94;4959981;28;97209;-48
2022/08/22 02:38:12;;;;;;;2.30;1.37;;;;;;;17.90;53.58;101371.75;4957940;28;98482;-46
2022/08/22 02:40:50;;;;;;;2.03;1.20;;;;;;;17.88;52.99;101372.28;4958540;28;98155;-47
2022/08/22 02:43:38;;;;;;;1.80;1.30;;;;;;;17.84;53.55;101373.84;4954793;28;96938;-45
2022/08/22 02:46:24;;;;;;;2.23;1.40;;;;;;;17.84;53.24;101376.63;4952278;28;100339;-50
2022/08/22 02:49:15;;;;;;;2.10;1.23;;;;;;;17.79;53.04;101369.84;4958025;28;97058;-47
2022/08/22 02:51:57;;;;;;;4.10;1.60;;;;;;;17.73;52.82;101371.97;4957432;28;97086;-48
2022/08/22 02:54:34;;;;;;;1.43;1.10;;;;;;;17.72;53.04;101376.00;4961899;28;96885;-48
2022/08/22 02:57:20;;;;;;;1.00;1.00;;;;;;;17.67;52.80;101379.59;4957379;28;97141;-48
2022/08/22 03:00:25;;;;;;;1.30;1.20;;;;;;;17.61;53.45;101373.34;4955485;28;101355;-48
2022/08/22 03:03:05;;;;;;;1.73;1.40;;;;;;;17.58;53.55;101376.44;4958853;28;97623;-47
2022/08/22 03:05:36;;;;;;;2.13;1.33;;;;;;;17.58;53.27;101370.88;4955649;28;97799;-47
2022/08/22 03:08:19;;;;;;;2.07;1.87;;;;;;;17.57;53.40;101372.16;4960951;28;97368;-48
2022/08/22 03:10:55;;;;;;;1.60;1.50;;;;;;;17.55;53.03;101378.25;4951821;28;97619;-48
2022/08/22 03:13:42;;;;;;;2.13;1.20;;;;;;;17.54;53.11;101385.06;4956998;28;97074;-48
2022/08/22 03:16:46;;;;;;;1.43;1.23;;;;;;;17.53;53.76;101383.56;4960776;28;97121;-48
2022/08/22 03:19:29;;;;;;;1.07;1.07;;;;;;;17.52;53.44;101382.06;4946318;28;105085;-48
2022/08/22 03:22:06;;;;;;;1.83;1.13;;;;;;;17.51;53.23;101385.38;4958276;28;96690;-48
2022/08/22 03:24:34;;;;;;;1.50;1.20;;;;;;;17.46;52.70;101380.59;4956493;28;97090;-48
2022/08/22 03:27:17;;;;;;;1.43;1.33;;;;;;;17.43;53.31;101384.44;4960492;28;96688;-48
2022/08/22 03:29:52;;;;;;;2.87;1.37;;;;;;;17.37;53.12;101384.47;4959118;28;100713;-48
2022/08/22 03:32:20;;;;;;;1.63;1.30;;;;;;;17.34;52.92;101373.66;4949772;28;97543;-47
2022/08/22 03:35:07;;;;;;;2.67;1.70;;;;;;;17.30;53.83;101371.13;4956175;28;97155;-48
2022/08/22 03:37:39;;;;;;;1.73;1.30;;;;;;;17.26;53.23;101376.25;4957166;28;97032;-48
2022/08/22 03:40:31;;;;;;;1.70;1.40;;;;;;;17.24;53.93;101376.00;4956875;28;98591;-47
2022/08/22 03:43:17;;;;;;;0.83;0.83;;;;;;;17.24;53.76;101376.00;4956974;28;101308;-48
2022/08/22 03:46:12;;;;;;;2.23;1.40;;;;;;;17.20;53.60;101370.75;4958378;28;97069;-48
2022/08/22 03:48:57;;;;;;;2.27;1.50;;;;;;;17.15;53.86;101370.78;4948889;28;97077;-47
2022/08/22 03:51:38;;;;;;;1.67;1.57;;;;;;;17.16;53.21;101375.09;4957474;28;96885;-48
2022/08/22 03:54:14;;;;;;;2.60;1.80;;;;;;;17.10;53.62;101374.41;4961554;28;100193;-49
2022/08/22 03:56:43;;;;;;;1.73;1.23;;;;;;;17.09;53.40;101370.09;4956082;28;97012;-48
2022/08/22 03:59:33;;;;;;;1.67;1.40;;;;;;;17.03;54.04;101372.19;4958497;28;96625;-48
2022/08/22 04:02:08;;;;;;;2.60;1.30;;;;;;;17.02;53.82;101373.44;4960168;28;97202;-47
2022/08/22 04:04:39;;;;;;;2.30;1.20;;;;;;;17.00;53.24;101367.66;4954994;28;96932;-46
2022/08/22 04:07:26;;;;;;;2.53;1.50;;;;;;;16.98;54.04;101375.75;4963659;28;96770;-48
2022/08/22 04:10:13;;;;;;;2.50;1.90;;;;;;;16.95;53.51;101371.25;4958096;28;96810;-48
2022/08/22 04:13:02;;;;;;;1.53;1.20;;;;;;;16.93;53.96;101379.34;4961944;28;97371;-47
2022/08/22 04:15:46;;;;;;;1.63;1.37;;;;;;;16.89;54.06;101382.41;4954617;28;100187;-48
2022/08/22 04:18:41;;;;;;;2.03;1.30;;;;;;;16.84;54.09;101394.31;4958716;28;96924;-47
2022/08/22 04:21:13;;;;;;;1.20;1.20;;;;;;;16.83;53.65;101398.38;4934513;28;97236;-48
2022/08/22 04:23:49;;;;;;;1.53;1.40;;;;;;;16.81;53.37;101394.59;4958815;28;97180;-48
2022/08/22 04:26:33;;;;;;;1.83;1.10;;;;;;;16.84;53.95;101396.38;4956654;28;97136;-48
2022/08/22 04:29:07;;;;;;;0.93;0.93;;;;;;;16.85;53.79;101403.41;4957307;28;97802;-48
2022/08/22 04:31:41;;;;;;;1.50;1.40;;;;;;;16.79;53.51;101392.34;4960132;28;97281;-47
2022/08/22 04:34:32;;;;;;;1.70;1.60;;;;;;;16.77;54.24;101403.25;4958576;28;101472;-48
2022/08/22 04:37:17;;;;;;;1.47;1.37;;;;;;;16.75;54.31;101410.59;4955474;28;102849;-48
2022/08/22 04:39:48;;;;;;;1.47;1.30;;;;;;;16.72;53.64;101408.81;4960310;28;97060;-47
2022/08/22 04:42:20;;;;;;;2.33;1.63;;;;;;;16.75;53.71;101416.91;4948874;28;97270;-48
2022/08/22 04:45:06;;;;;;;3.47;1.37;;;;;;;16.76;54.33;101415.63;4961271;28;103295;-48
2022/08/22 04:48:01;;;;;;;3.83;1.70;;;;;;;16.74;54.06;101415.38;4956579;28;101720;-48
2022/08/22 04:50:47;;;;;;;3.90;1.33;;;;;;;16.70;54.58;101411.38;4959007;28;97265;-48
2022/08/22 04:53:38;;;;;;;1.77;1.33;;;;;;;16.68;54.45;101413.91;4963086;28;97100;-46
2022/08/22 04:56:19;;;;;;;1.67;1.17;;;;;;;16.69;54.58;101416.16;4963687;28;100614;-47
2022/08/22 04:58:46;;;;;;;1.73;1.43;;;;;;;16.72;54.00;101419.94;4963862;28;97365;-46
2022/08/22 05:01:38;;;;;;;2.23;1.50;;;;;;;16.73;54.80;101424.97;4958438;28;97165;-48
2022/08/22 05:04:19;;;;;;;1.43;1.30;;;;;;;16.74;54.57;101423.72;4929439;28;97143;-48
2022/08/22 05:06:49;;;;;;;1.53;1.43;;;;;;;16.74;54.02;101423.72;4956864;28;102432;-48
2022/08/22 05:09:22;;;;;;;5.80;1.93;;;;;;;16.78;54.12;101432.53;4959829;28;97246;-47
2022/08/22 05:11:51;;;;;;;3.03;1.60;;;;;;;16.80;54.18;101427.19;4956793;28;96778;-46
2022/08/22 05:14:34;;;;;;;1.80;1.40;;;;;;;16.83;54.30;101426.19;4961202;28;97120;-48
2022/08/22 05:17:03;;;;;;;1.30;1.20;;;;;;;16.85;53.92;101431.97;4957545;28;97372;-48
2022/08/22 05:19:36;;;;;;;1.53;1.27;;;;;;;16.86;54.20;101429.94;4957254;28;97589;-47
2022/08/22 05:22:02;;;;;;;1.00;1.00;;;;;;;16.85;53.92;101434.00;4949691;28;97101;-47
2022/08/22 05:24:38;;;;;;;2.23;1.20;;;;;;;16.85;54.63;101428.44;4953263;28;97454;-47
2022/08/22 05:27:11;;;;;;;1.80;1.70;;;;;;;16.87;54.42;101437.00;4951705;28;98094;-47
2022/08/22 05:29:41;;;;;;;2.93;1.50;;;;;;;16.88;54.19;101441.31;4956319;28;97730;-47
2022/08/22 05:32:17;;;;;;;2.67;1.17;;;;;;;16.90;54.44;101433.19;4942728;28;98138;-47
2022/08/22 05:34:45;;;;;;;1.20;1.10;;;;;;;16.90;54.27;101438.75;4955519;28;97559;-47
2022/08/22 05:37:16;;;;;;;1.50;1.40;;;;;;;16.93;54.28;101437.72;4954699;28;98739;-47
2022/08/22 05:39:46;;;;;;;2.57;1.57;;;;;;;16.93;54.49;101441.25;4955432;28;98528;-47
2022/08/22 05:42:25;;;;;;;2.23;1.27;;;;;;;16.97;54.78;101441.00;4953660;28;97750;-47
2022/08/22 05:44:50;;;;;;;5.27;1.27;;;;;;;16.97;54.30;101436.16;4955887;28;97186;-47
2022/08/22 05:47:15;;;;;;;1.20;1.10;;;;;;;16.98;54.38;101434.91;4958882;28;96968;-47
2022/08/22 05:50:03;;;;;;;1.50;1.50;;;;;;;17.00;55.35;101439.94;4953596;28;98052;-47
2022/08/22 05:52:57;;;;;;;1.53;1.10;;;;;;;17.05;54.95;101439.91;4958000;28;97476;-47
2022/08/22 05:55:23;;;;;;;2.80;1.23;;;;;;;17.07;54.38;101436.59;4953342;28;97745;-47
2022/08/22 05:57:57;;;;;;;1.07;1.07;;;;;;;17.10;54.51;101432.78;4953496;28;97532;-47
2022/08/22 06:00:25;;;;;;;1.97;1.87;;;;;;;17.13;54.43;101435.28;4952079;28;99971;-47
2022/08/22 06:03:20;;;;;;;3.43;1.30;;;;;;;17.16;54.33;101433.50;4952818;28;98273;-47
2022/08/22 06:05:53;;;;;;;2.40;1.50;;;;;;;17.21;54.95;101438.25;4902050;28;97206;-47
2022/08/22 06:08:40;;;;;;;3.00;1.50;;;;;;;17.24;55.12;101437.97;4956112;28;97379;-46
2022/08/22 06:11:19;;;;;;;1.10;1.00;;;;;;;17.30;55.27;101443.47;4955196;28;101400;-47
2022/08/22 06:14:02;;;;;;;1.30;1.20;;;;;;;17.36;55.18;101441.41;4954232;28;97231;-46
2022/08/22 06:17:00;;;;;;;2.40;1.70;;;;;;;17.43;54.68;101440.06;4949057;28;97269;-47
2022/08/22 06:19:26;;;;;;;1.57;1.47;;;;;;;17.45;54.44;101440.31;4939361;28;101739;-46
2022/08/22 06:21:53;;;;;;;1.30;1.20;;;;;;;17.54;54.64;101437.94;4952410;28;97541;-47
2022/08/22 06:24:25;;;;;;;3.67;1.83;;;;;;;17.61;54.98;101442.16;4954757;28;97032;-47
2022/08/22 06:26:52;;;;;;;3.67;1.47;;;;;;;17.65;54.70;101448.94;4954369;28;97363;-47
2022/08/22 06:29:30;;;;;;;1.63;1.30;;;;;;;17.73;55.41;101435.97;4955560;28;97676;-52
2022/08/22 06:31:56;;;;;;;3.27;1.50;;;;;;;17.79;54.70;101447.03;4954203;28;97388;-49
2022/08/22 06:34:31;;;;;;;3.07;1.63;;;;;;;17.87;55.31;101447.94;4952568;28;96860;-47
2022/08/22 06:37:01;;;;;;;2.20;1.40;;;;;;;17.95;54.89;101454.47;4954878;28;96978;-48
2022/08/22 06:39:26;;;;;;;3.23;1.40;;;;;;;18.04;55.11;101447.78;4955597;28;97702;-47
2022/08/22 06:42:12;;;;;;;1.37;1.27;;;;;;;18.12;55.42;101457.78;4957316;28;98807;-47
2022/08/22 06:44:50;;;;;;;1.50;1.17;;;;;;;18.21;55.72;101453.88;4955645;28;97834;-48
2022/08/22 06:47:22;;;;;;;1.83;1.23;;;;;;;18.29;55.58;101455.53;4956320;28;97013;-47
2022/08/22 06:49:52;;;;;;;3.07;1.57;;;;;;;18.38;55.24;101446.81;4955106;28;97273;-47
2022/08/22 06:52:22;;;;;;;2.03;1.43;;;;;;;18.50;55.25;101450.97;4957881;28;97405;-47
2022/08/22 06:54:50;;;;;;;1.47;1.37;;;;;;;18.60;55.50;101451.34;4953881;28;97242;-47
2022/08/22 06:57:56;;;;;;;1.37;1.27;;;;;;;18.71;56.65;101445.59;4955225;28;96781;-47
2022/08/22 07:00:22;;;;;;;1.60;1.33;;;;;;;18.82;55.42;101448.22;4903995;28;100496;-48
2022/08/22 07:02:54;;;;;;;2.57;1.50;;;;;;;18.96;55.80;101449.03;4907790;28;97520;-48
2022/08/22 07:05:24;;;;;;;1.30;1.20;;;;;;;19.08;55.77;101451.09;4932515;28;98063;-54
2022/08/22 07:07:49;;;;;;;1.73;1.10;;;;;;;19.19;55.63;101458.53;4956516;28;97249;-47
2022/08/22 07:10:16;;;;;;;2.43;1.13;;;;;;;19.34;55.55;101456.75;4953369;28;97681;-48
2022/08/22 07:12:50;;;;;;;1.47;1.33;;;;;;;19.51;56.04;101461.28;4954811;28;97610;-48
2022/08/22 07:15:31;;;;;;;2.67;1.70;;;;;;;19.68;56.48;101472.91;4951895;28;97376;-47
2022/08/22 07:17:59;;;;;;;1.83;1.07;;;;;;;19.85;55.44;101476.91;4954620;28;97945;-48
2022/08/22 07:20:30;;;;;;;1.80;1.70;;;;;;;20.02;55.82;101473.75;4956892;28;100056;-48
2022/08/22 07:23:03;;;;;;;2.57;1.93;;;;;;;20.15;56.33;101476.53;4956671;28;96638;-48
2022/08/22 07:25:30;;;;;;;1.60;1.47;;;;;;;20.29;55.79;101466.84;4955017;28;97141;-48
2022/08/22 07:28:41;;;;;;;2.97;1.50;;;;;;;20.46;56.80;101463.72;4957089;28;96862;-48
2022/08/22 07:31:30;;;;;;;1.37;0.97;;;;;;;20.65;56.14;101469.88;4946862;28;101698;-47
2022/08/22 07:34:06;;;;;;;2.60;1.30;;;;;;;20.81;55.63;101469.50;4957152;28;101971;-48
2022/08/22 07:37:04;;;;;;;1.70;1.50;;;;;;;21.01;55.94;101467.28;4956485;28;97019;-48
2022/08/22 07:39:44;;;;;;;1.57;1.23;;;;;;;21.17;55.57;101466.88;4953265;28;97001;-48
2022/08/22 07:42:36;;;;;;;1.77;1.30;;;;;;;21.33;55.40;101473.34;4952399;28;97304;-48
2022/08/22 07:45:28;;;;;;;2.13;1.10;;;;;;;21.51;55.04;101469.59;4956206;28;100944;-48
2022/08/22 07:48:39;;;;;;;5.70;2.00;;;;;;;21.68;54.41;101475.47;4948229;28;97330;-48
2022/08/22 07:51:17;;;;;;;1.23;1.00;;;;;;;21.87;54.68;101475.25;4939435;28;97609;-48
2022/08/22 07:54:00;;;;;;;5.57;1.70;;;;;;;21.99;53.84;101477.19;4950072;28;96987;-48
2022/08/22 07:56:29;;;;;;;2.20;1.37;;;;;;;22.17;53.56;101478.22;4956775;28;97281;-48
2022/08/22 07:59:05;;;;;;;3.40;1.30;;;;;;;22.34;53.43;101484.81;4952978;28;96743;-47
2022/08/22 08:01:31;;;;;;;1.50;1.20;;;;;;;22.50;53.12;101479.28;4955812;28;97092;-48
2022/08/22 08:04:06;;;;;;;2.20;1.30;;;;;;;22.69;53.19;101493.75;4956765;28;97599;-48
2022/08/22 08:06:33;;;;;;;1.30;1.20;;;;;;;22.80;52.47;101480.09;4954140;28;97289;-47
2022/08/22 08:09:00;;;;;;;1.47;1.37;;;;;;;22.95;52.20;101482.22;4956044;28;97104;-48
2022/08/22 08:11:31;;;;;;;1.33;1.07;;;;;;;23.13;51.83;101469.84;4947749;28;97319;-48
2022/08/22 08:14:00;;;;;;;1.30;1.00;;;;;;;23.30;51.69;101469.31;4953392;28;97640;-49
2022/08/22 08:16:30;;;;;;;2.03;1.40;;;;;;;23.43;51.09;101471.97;4957662;28;97223;-48
2022/08/22 08:18:58;;;;;;;2.67;1.20;;;;;;;23.58;50.97;101463.50;4953233;28;97356;-48
2022/08/22 08:21:41;;;;;;;1.97;1.40;;;;;;;23.77;50.37;101467.41;4954583;28;97027;-48
2022/08/22 08:24:12;;;;;;;2.93;1.33;;;;;;;23.95;50.27;101470.34;4953402;28;101673;-48
2022/08/22 08:29:27;;;;;;;1.70;1.30;;;;;;;24.25;49.96;101459.03;4958101;28;97155;-48
2022/08/22 08:31:54;;;;;;;2.50;1.30;;;;;;;24.40;49.54;101461.75;4953745;28;97441;-48
2022/08/22 08:34:23;;;;;;;1.60;1.50;;;;;;;24.54;49.05;101463.00;4954843;28;97427;-48
2022/08/22 08:36:57;;;;;;;3.63;1.17;;;;;;;24.66;48.03;101447.16;4951319;28;97778;-48
2022/08/22 08:39:31;;;;;;;0.80;0.80;;;;;;;24.84;48.45;101456.47;4959220;28;97347;-48
2022/08/22 08:42:18;;;;;;;0.80;0.80;;;;;;;25.00;47.64;101458.63;4955009;28;97132;-48
2022/08/22 08:44:53;;;;;;;1.33;0.90;;;;;;;25.17;48.07;101449.44;4950648;28;100395;-48
2022/08/22 08:47:49;;;;;;;1.37;1.17;;;;;;;25.36;46.84;101454.56;4954834;28;100140;-52
2022/08/22 08:50:39;;;;;;;2.30;0.93;;;;;;;25.52;46.30;101459.50;4954400;28;98335;-48
2022/08/22 08:53:25;;;;;;;2.17;0.80;;;;;;;25.63;45.77;101455.44;4954776;28;97381;-49
2022/08/22 08:56:01;;;;;;;1.70;0.93;;;;;;;25.82;45.75;101452.78;4953326;28;100654;-48
2022/08/22 08:59:09;;;;;;;1.50;0.87;;;;;;;26.05;45.54;101450.47;4953106;28;100203;-48
2022/08/22 09:01:44;;;;;;;1.53;0.90;;;;;;;26.27;45.03;101449.47;4909379;28;97520;-48
2022/08/22 09:04:41;;;;;;;0.80;0.80;;;;;;;26.46;44.85;101460.13;4951036;28;97817;-48
2022/08/22 09:07:24;;;;;;;1.00;0.80;;;;;;;26.64;44.18;101444.63;4954787;28;100658;-48
2022/08/22 09:10:08;;;;;;;2.10;0.90;;;;;;;26.83;44.68;101441.16;4952354;28;100195;-48
2022/08/22 09:12:52;;;;;;;1.93;1.00;;;;;;;27.01;42.45;101446.16;4955181;28;96843;-49
2022/08/22 09:15:28;;;;;;;1.10;0.77;;;;;;;27.16;43.45;101442.31;4951351;28;97880;-48
2022/08/22 09:18:25;;;;;;;1.57;0.90;;;;;;;27.33;42.16;101445.78;4954132;28;97498;-48
2022/08/22 09:21:01;;;;;;;1.00;0.77;;;;;;;27.51;42.68;101440.03;4950330;28;102735;-49
2022/08/22 09:23:58;;;;;;;1.60;1.13;;;;;;;27.64;40.98;101434.69;4955808;28;97089;-49
2022/08/22 09:26:50;;;;;;;1.10;0.77;;;;;;;27.73;41.69;101450.16;4956053;28;98265;-47
2022/08/22 09:29:31;;;;;;;1.90;0.87;;;;;;;27.89;41.36;101432.28;4951923;28;102749;-48
2022/08/22 09:32:17;;;;;;;1.90;0.90;;;;;;;28.03;40.91;101436.19;4955568;28;100292;-48
2022/08/22 09:35:16;;;;;;;2.80;1.07;;;;;;;28.15;40.84;101439.91;4950416;28;97311;-48
2022/08/22 09:38:04;;;;;;;1.93;1.20;;;;;;;28.22;40.23;101418.44;4951548;28;97016;-49
2022/08/22 09:40:45;;;;;;;0.93;0.80;;;;;;;28.29;39.99;101423.19;4956831;28;97255;-48
2022/08/22 09:43:20;;;;;;;1.63;1.03;;;;;;;28.34;39.55;101427.06;4952332;28;101033;-49
2022/08/22 09:45:48;;;;;;;1.53;1.17;;;;;;;28.22;40.16;101420.53;4954632;28;97488;-48
2022/08/22 09:48:40;;;;;;;3.73;1.00;;;;;;;28.11;38.65;101411.31;4955772;28;96991;-48
2022/08/22 09:51:40;;;;;;;1.07;1.00;;;;;;;28.29;38.55;101413.94;4952253;28;96780;-48
2022/08/22 09:54:30;;;;;;;0.73;0.70;;;;;;;28.33;39.38;101411.44;4954229;28;102121;-48
2022/08/22 09:57:22;;;;;;;1.87;1.03;;;;;;;28.43;38.46;101409.31;4952666;28;97186;-49
2022/08/22 09:59:58;;;;;;;2.17;1.00;;;;;;;28.45;38.51;101417.94;4952652;28;97127;-48
2022/08/22 10:02:39;;;;;;;1.27;1.17;;;;;;;28.34;37.57;101412.91;4952579;28;102390;-48
2022/08/22 10:05:25;;;;;;;1.63;0.90;;;;;;;28.17;38.57;101408.94;4953806;28;100489;-48
2022/08/22 10:08:17;;;;;;;1.60;1.03;;;;;;;28.16;38.43;101401.78;4953543;28;96760;-48
2022/08/22 10:10:55;;;;;;;1.13;0.90;;;;;;;28.15;39.79;101405.94;4954345;28;97166;-48
2022/08/22 10:13:32;;;;;;;1.20;1.00;;;;;;;28.29;39.08;101396.97;4955394;28;98473;-48
2022/08/22 10:16:15;;;;;;;1.00;1.00;;;;;;;28.47;34.17;101390.50;4956083;28;97055;-49
2022/08/22 10:19:07;;;;;;;2.00;1.13;;;;;;;28.56;38.06;101397.47;4955291;28;97224;-49
2022/08/22 10:21:43;;;;;;;1.10;1.10;;;;;;;28.78;38.24;101387.72;4957182;28;99457;-49
2022/08/22 10:24:25;;;;;;;1.77;1.30;;;;;;;28.97;38.27;101390.44;4957119;28;100664;-48
2022/08/22 10:27:00;;;;;;;2.73;1.20;;;;;;;29.22;37.11;101387.94;4941756;28;102216;-48
2022/08/22 10:29:55;;;;;;;2.20;1.07;;;;;;;29.38;36.25;101382.59;4959498;28;96985;-47
2022/08/22 10:32:43;;;;;;;1.30;0.70;;;;;;;29.49;35.31;101373.41;4961471;28;96929;-47
2022/08/22 10:35:23;;;;;;;1.20;0.80;;;;;;;29.56;34.84;101376.03;4962597;28;101920;-47
2022/08/22 10:38:17;;;;;;;1.23;0.70;;;;;;;29.64;34.44;101382.22;4958921;28;100103;-51
2022/08/22 10:41:11;;;;;;;1.13;0.90;;;;;;;29.67;34.85;101392.38;4952553;28;97292;-48
2022/08/22 10:43:37;;;;;;;1.10;0.60;;;;;;;29.70;35.78;101386.81;4961085;28;97145;-48
2022/08/22 10:46:07;;;;;;;1.77;0.93;;;;;;;29.70;35.38;101386.81;4960030;28;98523;-47
2022/08/22 10:48:45;;;;;;;1.20;1.00;;;;;;;29.71;34.35;101379.81;4921955;28;101539;-48
2022/08/22 10:51:22;;;;;;;2.57;0.93;;;;;;;29.74;34.43;101378.56;4958822;28;97614;-48
2022/08/22 10:53:56;;;;;;;2.27;1.20;;;;;;;29.72;34.21;101373.50;4958852;28;96997;-48
2022/08/22 10:56:40;;;;;;;1.90;1.20;;;;;;;29.71;34.35;101374.13;4956348;28;97459;-49
2022/08/22 10:59:43;;;;;;;1.30;0.83;;;;;;;29.76;34.48;101382.31;4951651;28;97703;-47
2022/08/22 11:02:40;;;;;;;1.23;0.80;;;;;;;29.80;34.20;101373.31;4952444;28;97175;-47
2022/08/22 11:05:08;;;;;;;1.80;1.17;;;;;;;29.84;35.51;101385.66;4956477;28;97653;-47
2022/08/22 11:07:36;;;;;;;2.60;1.13;;;;;;;29.91;34.07;101376.19;4959681;28;98561;-48
2022/08/22 11:10:15;;;;;;;2.83;0.93;;;;;;;29.90;32.96;101374.72;4959071;28;97324;-48
2022/08/22 11:13:01;;;;;;;1.00;0.80;;;;;;;29.77;32.90;101368.88;4958234;28;97022;-47
2022/08/22 11:15:46;;;;;;;1.30;1.20;;;;;;;29.70;33.15;101370.56;4959580;28;97154;-48
2022/08/22 11:18:24;;;;;;;1.80;0.90;;;;;;;29.73;32.73;101360.78;4957399;28;101127;-49
2022/08/22 11:20:59;;;;;;;2.33;1.00;;;;;;;29.80;34.35;101361.97;4958537;28;97219;-47
2022/08/22 11:23:51;;;;;;;0.90;0.90;;;;;;;29.90;33.36;101356.94;4958916;28;96792;-48
2022/08/22 11:26:41;;;;;;;3.43;0.77;;;;;;;30.07;33.24;101354.53;4953752;28;97232;-48
2022/08/22 11:29:43;;;;;;;1.43;0.87;;;;;;;30.15;33.43;101355.03;4955658;28;101625;-47
2022/08/22 11:32:29;;;;;;;1.10;0.70;;;;;;;30.22;33.03;101364.66;4955261;28;101672;-47
2022/08/22 11:35:06;;;;;;;0.80;0.73;;;;;;;30.33;33.09;101359.03;4946726;28;98058;-47
2022/08/22 11:38:09;;;;;;;1.10;0.70;;;;;;;30.56;32.54;101355.44;4955396;28;96921;-47
2022/08/22 11:40:36;;;;;;;1.40;0.80;;;;;;;30.81;33.20;101355.56;4956716;28;100460;-48
2022/08/22 11:43:31;;;;;;;1.30;1.03;;;;;;;30.98;31.27;101348.75;4958041;28;97028;-48
2022/08/22 11:45:59;;;;;;;1.20;0.87;;;;;;;31.09;31.90;101357.28;4955610;28;97635;-48
2022/08/22 11:48:42;;;;;;;0.70;0.60;;;;;;;31.21;31.58;101359.34;4957621;28;97255;-47
2022/08/22 11:51:15;;;;;;;1.93;0.80;;;;;;;31.24;31.12;101347.44;4953743;28;101317;-48
2022/08/22 11:53:48;;;;;;;1.20;0.93;;;;;;;31.34;31.59;101350.91;4957855;28;99447;-47
2022/08/22 11:56:30;;;;;;;1.73;0.70;;;;;;;31.43;30.42;101354.97;4954246;28;97260;-47
2022/08/22 11:59:00;;;;;;;1.57;1.03;;;;;;;31.61;30.61;101358.84;4957213;28;97125;-48
2022/08/22 12:01:45;;;;;;;2.70;0.80;;;;;;;31.73;29.39;101351.00;4947889;28;99108;-48
2022/08/22 12:04:17;;;;;;;1.20;1.00;;;;;;;31.68;29.74;101352.13;4957555;28;100265;-48
2022/08/22 12:07:17;;;;;;;2.27;0.80;;;;;;;31.62;29.78;101348.94;4959057;28;97105;-47
2022/08/22 12:10:01;;;;;;;2.20;1.00;;;;;;;31.65;29.69;101359.81;4944462;28;97132;-47
2022/08/22 12:12:36;;;;;;;1.33;0.67;;;;;;;31.78;30.24;101366.94;4956526;28;102046;-48
2022/08/22 12:15:27;;;;;;;1.33;0.80;;;;;;;31.92;29.57;101359.19;4955288;28;96923;-48
2022/08/22 12:17:59;;;;;;;1.57;0.70;;;;;;;32.06;30.04;101356.41;4956890;28;97697;-48
2022/08/22 12:20:36;;;;;;;1.53;0.97;;;;;;;32.22;29.86;101351.59;4959235;28;97186;-48
2022/08/22 12:23:26;;;;;;;1.10;0.90;;;;;;;32.43;29.00;101343.50;4952356;28;97493;-48
2022/08/22 12:26:22;;;;;;;1.13;0.83;;;;;;;32.65;29.21;101343.22;4946981;28;97480;-47
2022/08/22 12:29:17;;;;;;;1.17;0.70;;;;;;;32.88;28.71;101340.13;4947905;28;97022;-47
2022/08/22 12:31:57;;;;;;;1.27;1.13;;;;;;;33.08;28.37;101341.94;4946139;28;98730;-47